createdAt,value
2017-12-11T00:02:10.543Z,0.50
2017-12-11T00:04:38.054Z,0.40
2017-12-11T00:07:05.559Z,0.50
2017-12-11T00:09:33.071Z,0.88
2017-12-11T00:12:00.610Z,0.40
2017-12-11T00:14:28.128Z,0.80
2017-12-11T00:16:55.641Z,0.65
2017-12-11T00:19:23.273Z,0.88
2017-12-11T00:21:50.786Z,0.80
2017-12-11T00:24:18.302Z,0.68
2017-12-11T00:26:46.046Z,0.70
2017-12-11T00:29:13.546Z,0.70
2017-12-11T00:31:41.063Z,0.68
2017-12-11T00:34:08.756Z,0.70
2017-12-11T00:36:36.263Z,0.70
2017-12-11T00:39:03.770Z,0.80
2017-12-11T00:41:31.683Z,0.60
2017-12-11T00:43:59.194Z,0.75
2017-12-11T00:46:26.703Z,0.50
2017-12-11T00:48:54.490Z,0.70
2017-12-11T00:51:21.997Z,0.80
2017-12-11T00:53:49.509Z,0.90
2017-12-11T00:56:17.268Z,0.80
2017-12-11T00:58:44.828Z,1.20
2017-12-11T01:01:12.334Z,0.65
2017-12-11T01:03:40.765Z,1.30
2017-12-11T01:06:08.270Z,1.20
2017-12-11T01:08:35.781Z,1.12
2017-12-11T01:11:03.442Z,0.90
2017-12-11T01:13:30.945Z,1.00
2017-12-11T01:15:58.458Z,1.08
2017-12-11T01:18:26.001Z,1.20
2017-12-11T01:20:53.508Z,1.60
2017-12-11T01:23:21.912Z,1.58
2017-12-11T01:25:49.693Z,1.10
2017-12-11T01:28:17.202Z,1.15
2017-12-11T01:30:44.705Z,1.08
2017-12-11T01:33:12.585Z,1.20
2017-12-11T01:35:40.095Z,1.75
2017-12-11T01:38:07.608Z,1.08
2017-12-11T01:40:35.146Z,1.30
2017-12-11T01:43:02.654Z,1.35
2017-12-11T01:45:30.160Z,1.12
2017-12-11T01:47:57.730Z,1.10
2017-12-11T01:50:25.238Z,1.05
2017-12-11T01:52:53.278Z,1.00
2017-12-11T01:55:20.838Z,1.52
2017-12-11T01:57:48.338Z,1.30
2017-12-11T02:00:15.853Z,1.52
2017-12-11T02:02:43.617Z,1.00
2017-12-11T02:05:11.117Z,1.30
2017-12-11T02:07:38.625Z,1.10
2017-12-11T02:10:06.205Z,1.10
2017-12-11T02:12:33.712Z,1.55
2017-12-11T02:15:01.218Z,1.10
2017-12-11T02:17:28.766Z,1.60
2017-12-11T02:19:56.272Z,1.25
2017-12-11T02:22:23.782Z,1.45
2017-12-11T02:24:51.482Z,1.70
2017-12-11T02:27:19.003Z,1.58
2017-12-11T02:29:46.510Z,1.55
2017-12-11T02:32:14.054Z,1.80
2017-12-11T02:34:41.578Z,1.30
2017-12-11T02:37:09.137Z,1.15
2017-12-11T02:39:37.010Z,1.25
2017-12-11T02:42:04.515Z,1.35
2017-12-11T02:44:32.025Z,1.87
2017-12-11T02:46:59.587Z,1.35
2017-12-11T02:49:27.140Z,1.48
2017-12-11T02:51:54.702Z,1.33
2017-12-11T02:54:22.266Z,1.12
2017-12-11T02:56:49.778Z,1.50
2017-12-11T02:59:17.282Z,1.35
2017-12-11T03:01:45.240Z,1.60
2017-12-11T03:04:12.902Z,1.40
2017-12-11T03:06:40.461Z,1.70
2017-12-11T03:09:08.202Z,1.60
2017-12-11T03:11:35.702Z,1.87
2017-12-11T03:14:03.241Z,1.80
2017-12-11T03:16:30.795Z,2.30
2017-12-11T03:18:58.302Z,1.60
2017-12-11T03:21:26.328Z,1.55
2017-12-11T03:23:54.064Z,1.77
2017-12-11T03:26:21.566Z,1.25
2017-12-11T03:28:49.111Z,1.35
2017-12-11T03:31:16.873Z,1.00
2017-12-11T03:33:44.424Z,1.25
2017-12-11T03:36:11.990Z,0.70
2017-12-11T03:38:39.730Z,0.62
2017-12-11T03:41:07.246Z,0.80
2017-12-11T03:43:34.769Z,0.80
2017-12-11T03:46:02.635Z,0.60
2017-12-11T03:48:30.196Z,0.57
2017-12-11T03:50:57.700Z,0.73
2017-12-11T03:53:25.494Z,0.77
2017-12-11T03:55:53.001Z,0.80
2017-12-11T03:58:20.502Z,0.50
2017-12-11T04:00:48.478Z,0.90
2017-12-11T04:03:15.977Z,0.60
2017-12-11T04:05:43.517Z,0.50
2017-12-11T04:08:11.294Z,0.50
2017-12-11T04:10:38.947Z,0.60
2017-12-11T04:13:06.457Z,0.40
2017-12-11T04:15:34.078Z,0.60
2017-12-11T04:18:01.594Z,0.73
2017-12-11T04:20:29.094Z,0.52
2017-12-11T04:22:56.641Z,0.60
2017-12-11T04:25:24.213Z,0.55
2017-12-11T04:27:51.721Z,0.60
2017-12-11T04:30:19.622Z,0.60
2017-12-11T04:32:47.123Z,1.85
2017-12-11T04:35:14.639Z,1.60
2017-12-11T04:37:42.628Z,1.10
2017-12-11T04:40:10.164Z,1.00
2017-12-11T04:42:37.735Z,0.90
2017-12-11T04:45:05.589Z,0.70
2017-12-11T04:47:33.093Z,0.60
2017-12-11T04:50:00.616Z,0.90
2017-12-11T04:52:28.246Z,1.30
2017-12-11T04:54:55.775Z,1.55
2017-12-11T04:57:23.284Z,2.37
2017-12-11T04:59:50.845Z,1.50
2017-12-11T05:02:18.362Z,4.97
2017-12-11T05:04:45.874Z,2.05
2017-12-11T05:07:13.423Z,0.80
2017-12-11T05:09:40.979Z,1.92
2017-12-11T05:12:08.485Z,1.30
2017-12-11T05:14:36.196Z,0.75
2017-12-11T05:17:03.703Z,1.27
2017-12-11T05:19:31.234Z,1.10
2017-12-11T05:21:58.770Z,0.65
2017-12-11T05:24:26.283Z,0.73
2017-12-11T05:26:53.790Z,0.70
2017-12-11T05:29:21.448Z,0.80
2017-12-11T05:31:49.003Z,0.85
2017-12-11T05:34:16.594Z,1.08
2017-12-11T05:36:47.333Z,1.50
2017-12-11T05:39:14.838Z,1.20
2017-12-11T05:41:42.338Z,1.33
2017-12-11T05:44:09.894Z,1.65
2017-12-11T05:46:37.434Z,1.55
2017-12-11T05:49:04.937Z,1.58
2017-12-11T05:51:32.657Z,1.10
2017-12-11T05:54:00.158Z,0.60
2017-12-11T05:56:27.673Z,0.77
2017-12-11T05:58:55.546Z,1.20
2017-12-11T06:01:23.097Z,1.10
2017-12-11T06:03:50.660Z,0.77
2017-12-11T06:06:18.398Z,0.88
2017-12-11T06:08:45.911Z,1.80
2017-12-11T06:11:13.437Z,1.33
2017-12-11T06:13:41.303Z,1.70
2017-12-11T06:16:08.806Z,1.42
2017-12-11T06:18:36.318Z,1.77
2017-12-11T06:21:04.081Z,1.75
2017-12-11T06:23:31.587Z,1.40
2017-12-11T06:25:59.097Z,1.87
2017-12-11T06:28:26.656Z,2.20
2017-12-11T06:30:54.162Z,2.05
2017-12-11T06:33:20.968Z,2.35
2017-12-11T06:35:48.515Z,5.10
2017-12-11T06:38:16.017Z,3.67
2017-12-11T06:40:43.636Z,2.55
2017-12-11T06:43:11.397Z,2.78
2017-12-11T06:45:38.905Z,2.87
2017-12-11T06:48:06.430Z,3.37
2017-12-11T06:50:33.982Z,2.92
2017-12-11T06:53:01.534Z,3.90
2017-12-11T06:55:29.091Z,5.00
2017-12-11T06:57:56.638Z,7.57
2017-12-11T07:00:24.142Z,4.62
2017-12-11T07:02:51.665Z,4.90
2017-12-11T07:05:19.224Z,6.18
2017-12-11T07:07:46.726Z,4.62
2017-12-11T07:10:14.339Z,4.87
2017-12-11T07:12:42.105Z,4.95
2017-12-11T07:15:09.638Z,5.10
2017-12-11T07:17:37.146Z,3.35
2017-12-11T07:20:04.702Z,2.22
2017-12-11T07:22:32.240Z,2.90
2017-12-11T07:24:59.741Z,3.45
2017-12-11T07:27:27.461Z,5.10
2017-12-11T07:29:54.970Z,3.60
2017-12-11T07:32:22.482Z,4.07
2017-12-11T07:34:50.218Z,3.62
2017-12-11T07:37:17.726Z,3.80
2017-12-11T07:39:45.258Z,2.90
2017-12-11T07:42:12.938Z,4.00
2017-12-11T07:44:40.477Z,4.80
2017-12-11T07:47:09.039Z,6.37
2017-12-11T07:49:37.186Z,4.53
2017-12-11T07:52:04.761Z,5.20
2017-12-11T07:54:32.558Z,4.53
2017-12-11T07:57:00.671Z,4.80
2017-12-11T07:59:28.291Z,4.25
2017-12-11T08:01:56.883Z,3.97
2017-12-11T08:04:25.529Z,2.42
2017-12-11T08:06:53.190Z,3.40
2017-12-11T08:09:21.026Z,3.62
2017-12-11T08:11:48.733Z,1.92
2017-12-11T08:14:16.621Z,2.85
2017-12-11T08:16:45.078Z,3.55
2017-12-11T08:19:12.730Z,3.47
2017-12-11T08:21:41.039Z,2.90
2017-12-11T08:24:08.874Z,3.47
2017-12-11T08:26:36.805Z,4.32
2017-12-11T08:29:04.326Z,4.20
2017-12-11T08:31:32.599Z,3.72
2017-12-11T08:34:03.948Z,4.43
2017-12-11T08:36:31.563Z,3.37
2017-12-11T08:39:00.294Z,3.72
2017-12-11T08:41:28.183Z,3.17
2017-12-11T08:43:56.924Z,3.33
2017-12-11T08:46:26.730Z,3.87
2017-12-11T08:48:55.105Z,2.10
2017-12-11T08:51:24.274Z,2.78
2017-12-11T08:53:52.610Z,2.80
2017-12-11T08:56:20.170Z,2.08
2017-12-11T08:58:48.550Z,2.50
2017-12-11T09:01:16.242Z,1.73
2017-12-11T09:03:43.874Z,2.40
2017-12-11T09:06:11.438Z,2.35
2017-12-11T09:08:39.893Z,3.55
2017-12-11T09:11:07.470Z,2.00
2017-12-11T09:13:35.645Z,2.53
2017-12-11T09:16:03.153Z,1.85
2017-12-11T09:18:30.731Z,2.45
2017-12-11T09:20:58.243Z,4.10
2017-12-11T09:23:25.780Z,3.55
2017-12-11T09:25:53.346Z,3.78
2017-12-11T09:28:21.010Z,4.62
2017-12-11T09:30:48.560Z,3.67
2017-12-11T09:33:16.523Z,4.30
2017-12-11T09:35:44.031Z,5.47
2017-12-11T09:38:11.646Z,4.50
2017-12-11T09:40:39.434Z,2.20
2017-12-11T09:43:08.197Z,2.55
2017-12-11T09:45:36.269Z,2.28
2017-12-11T09:48:04.707Z,2.75
2017-12-11T09:50:32.291Z,3.70
2017-12-11T09:53:01.670Z,2.60
2017-12-11T09:55:29.578Z,1.90
2017-12-11T09:57:57.358Z,3.97
2017-12-11T10:00:25.002Z,1.70
2017-12-11T10:02:53.279Z,3.87
2017-12-11T10:05:20.842Z,2.35
2017-12-11T10:07:48.447Z,1.80
2017-12-11T10:10:16.775Z,1.95
2017-12-11T10:12:46.282Z,2.00
2017-12-11T10:15:13.903Z,1.77
2017-12-11T10:17:41.995Z,1.92
2017-12-11T10:20:10.392Z,3.15
2017-12-11T10:22:38.204Z,2.25
2017-12-11T10:25:07.256Z,3.00
2017-12-11T10:27:35.949Z,1.92
2017-12-11T10:30:04.860Z,2.75
2017-12-11T10:32:32.592Z,2.20
2017-12-11T10:35:02.129Z,2.05
2017-12-11T10:37:32.464Z,2.00
2017-12-11T10:40:00.945Z,3.55
2017-12-11T10:42:28.878Z,2.72
2017-12-11T10:44:57.553Z,2.30
2017-12-11T10:47:25.322Z,2.90
2017-12-11T10:49:52.877Z,2.95
2017-12-11T10:52:20.581Z,3.05
2017-12-11T10:54:48.098Z,2.30
2017-12-11T10:57:15.606Z,2.40
2017-12-11T10:59:43.402Z,3.00
2017-12-11T11:02:10.906Z,3.03
2017-12-11T11:04:38.438Z,2.92
2017-12-11T11:07:06.282Z,3.55
2017-12-11T11:09:33.786Z,4.00
2017-12-11T11:12:02.036Z,3.17
2017-12-11T11:14:29.799Z,4.72
2017-12-11T11:16:57.360Z,5.72
2017-12-11T11:19:24.874Z,6.95
2017-12-11T11:21:52.579Z,3.65
2017-12-11T11:24:20.139Z,2.62
2017-12-11T11:26:47.642Z,4.43
2017-12-11T11:29:15.563Z,7.28
2017-12-11T11:31:43.122Z,4.53
2017-12-11T11:34:10.630Z,3.28
2017-12-11T11:36:38.426Z,3.30
2017-12-11T11:39:05.935Z,2.62
2017-12-11T11:41:33.462Z,3.05
2017-12-11T11:44:01.230Z,2.12
2017-12-11T11:46:28.889Z,2.80
2017-12-11T11:48:57.617Z,2.67
2017-12-11T11:51:27.079Z,2.72
2017-12-11T11:53:54.636Z,2.80
2017-12-11T11:56:22.503Z,4.20
2017-12-11T11:58:50.548Z,3.70
2017-12-11T12:01:18.133Z,3.20
2017-12-11T12:03:46.878Z,3.00
2017-12-11T12:06:14.583Z,3.20
2017-12-11T12:08:42.245Z,3.40
2017-12-11T12:11:10.521Z,3.62
2017-12-11T12:13:38.610Z,2.80
2017-12-11T12:16:06.238Z,2.58
2017-12-11T12:18:33.920Z,2.80
2017-12-11T12:21:01.596Z,3.12
2017-12-11T12:23:29.562Z,2.58
2017-12-11T12:25:57.308Z,2.60
2017-12-11T12:28:24.971Z,3.10
2017-12-11T12:30:52.656Z,3.17
2017-12-11T12:33:20.193Z,3.40
2017-12-11T12:35:48.380Z,10.75
2017-12-11T12:38:16.231Z,5.65
2017-12-11T12:40:43.830Z,3.30
2017-12-11T12:43:12.514Z,3.17
2017-12-11T12:45:40.042Z,3.92
2017-12-11T12:48:07.593Z,3.60
2017-12-11T12:50:35.791Z,4.50
2017-12-11T12:53:03.566Z,4.40
2017-12-11T12:55:31.157Z,3.30
2017-12-11T12:57:59.775Z,4.10
2017-12-11T13:00:28.521Z,4.45
2017-12-11T13:02:56.840Z,3.17
2017-12-11T13:05:25.526Z,3.80
2017-12-11T13:07:53.086Z,2.85
2017-12-11T13:10:21.033Z,3.80
2017-12-11T13:12:49.723Z,6.45
2017-12-11T13:15:17.238Z,11.88
2017-12-11T13:17:45.960Z,3.70
2017-12-11T13:20:14.317Z,3.45
2017-12-11T13:22:43.007Z,3.08
2017-12-11T13:25:10.596Z,4.50
2017-12-11T13:27:43.491Z,3.85
2017-12-11T13:30:16.576Z,3.67
2017-12-11T13:32:44.550Z,4.60
2017-12-11T13:35:12.100Z,4.30
2017-12-11T13:37:41.283Z,3.00
2017-12-11T13:40:09.273Z,3.65
2017-12-11T13:42:37.671Z,2.78
2017-12-11T13:45:06.646Z,3.10
2017-12-11T13:47:35.331Z,2.60
2017-12-11T13:50:03.746Z,3.00
2017-12-11T13:52:36.101Z,3.15
2017-12-11T13:55:03.743Z,2.35
2017-12-11T13:57:32.860Z,2.92
2017-12-11T14:00:02.940Z,2.97
2017-12-11T14:02:30.762Z,3.42
2017-12-11T14:04:58.393Z,3.80
2017-12-11T14:07:26.070Z,3.85
2017-12-11T14:09:53.713Z,5.18
2017-12-11T14:12:21.486Z,3.47
2017-12-11T14:14:49.276Z,3.30
2017-12-11T14:17:16.844Z,3.03
2017-12-11T14:19:44.762Z,3.33
2017-12-11T14:22:13.040Z,3.10
2017-12-11T14:24:40.832Z,2.70
2017-12-11T14:27:08.977Z,3.33
2017-12-11T14:29:36.847Z,3.30
2017-12-11T14:32:04.685Z,3.50
2017-12-11T14:34:33.202Z,2.00
2017-12-11T14:37:00.849Z,1.37
2017-12-11T14:39:28.519Z,1.40
2017-12-11T14:41:56.042Z,1.25
2017-12-11T14:44:24.519Z,1.20
2017-12-11T14:46:52.212Z,3.33
2017-12-11T14:49:20.028Z,2.97
2017-12-11T14:51:47.868Z,2.85
2017-12-11T14:54:16.221Z,2.20
2017-12-11T14:56:43.984Z,1.40
2017-12-11T14:59:12.467Z,1.00
2017-12-11T15:01:41.145Z,1.48
2017-12-11T15:04:08.689Z,1.30
2017-12-11T15:06:36.536Z,1.30
2017-12-11T15:09:04.414Z,1.05
2017-12-11T15:11:33.034Z,2.00
2017-12-11T15:14:01.458Z,2.83
2017-12-11T15:16:29.068Z,1.10
2017-12-11T15:18:56.730Z,0.82
2017-12-11T15:21:25.240Z,1.20
2017-12-11T15:23:53.588Z,0.82
2017-12-11T15:26:21.205Z,0.70
2017-12-11T15:28:49.525Z,0.77
2017-12-11T15:31:17.939Z,0.70
2017-12-11T15:33:46.794Z,2.37
2017-12-11T15:36:14.660Z,1.45
2017-12-11T15:38:42.429Z,1.23
2017-12-11T15:41:10.822Z,1.12
2017-12-11T15:43:38.948Z,1.42
2017-12-11T15:46:06.537Z,1.65
2017-12-11T15:48:34.144Z,0.93
2017-12-11T15:51:02.882Z,1.25
2017-12-11T15:53:30.441Z,1.35
2017-12-11T15:55:57.950Z,1.35
2017-12-11T15:58:25.506Z,1.50
2017-12-11T16:00:53.016Z,1.20
2017-12-11T16:03:20.518Z,1.40
2017-12-11T16:05:48.074Z,1.50
2017-12-11T16:08:15.591Z,1.25
2017-12-11T16:10:43.218Z,1.12
2017-12-11T16:13:11.119Z,0.98
2017-12-11T16:15:38.626Z,1.17
2017-12-11T16:18:06.163Z,1.00
2017-12-11T16:20:35.468Z,1.33
2017-12-11T16:23:03.096Z,1.10
2017-12-11T16:25:30.711Z,0.95
2017-12-11T16:27:58.806Z,1.20
2017-12-11T16:30:26.311Z,1.75
2017-12-11T16:32:54.971Z,1.27
2017-12-11T16:35:22.761Z,1.08
2017-12-11T16:37:50.396Z,1.00
2017-12-11T16:40:18.101Z,0.50
2017-12-11T16:42:45.925Z,0.90
2017-12-11T16:45:13.544Z,1.40
2017-12-11T16:47:41.146Z,0.90
2017-12-11T16:50:09.027Z,1.00
2017-12-11T16:52:37.341Z,1.42
2017-12-11T16:55:05.984Z,2.12
2017-12-11T16:57:33.974Z,1.37
2017-12-11T17:00:03.987Z,1.40
2017-12-11T17:02:31.538Z,1.83
2017-12-11T17:04:59.692Z,1.42
2017-12-11T17:07:27.401Z,1.20
2017-12-11T17:09:54.921Z,1.23
2017-12-11T17:12:22.676Z,1.65
2017-12-11T17:14:50.251Z,0.85
2017-12-11T17:17:17.758Z,1.30
2017-12-11T17:19:45.524Z,0.60
2017-12-11T17:22:13.076Z,1.15
2017-12-11T17:24:40.622Z,1.00
2017-12-11T17:27:08.314Z,0.80
2017-12-11T17:29:36.130Z,0.62
2017-12-11T17:32:03.970Z,0.90
2017-12-11T17:34:31.938Z,0.95
2017-12-11T17:36:59.450Z,0.95
2017-12-11T17:39:27.174Z,0.90
2017-12-11T17:41:55.230Z,0.60
2017-12-11T17:44:23.052Z,0.40
2017-12-11T17:46:51.190Z,0.43
2017-12-11T17:49:19.386Z,0.43
2017-12-11T17:51:47.234Z,0.65
2017-12-11T17:54:15.331Z,0.40
2017-12-11T17:56:44.491Z,0.68
2017-12-11T17:59:12.444Z,0.57
2017-12-11T18:01:40.822Z,0.60
2017-12-11T18:04:08.899Z,1.00
2017-12-11T18:06:36.708Z,0.73
2017-12-11T18:09:05.650Z,0.40
2017-12-11T18:11:33.824Z,0.52
2017-12-11T18:14:01.602Z,0.85
2017-12-11T18:16:29.454Z,0.55
2017-12-11T18:18:57.151Z,0.60
2017-12-11T18:21:26.006Z,0.80
2017-12-11T18:23:54.639Z,0.80
2017-12-11T18:26:22.670Z,0.62
2017-12-11T18:28:50.834Z,0.70
2017-12-11T18:31:18.611Z,0.70
2017-12-11T18:33:46.799Z,0.40
2017-12-11T18:36:15.457Z,0.90
2017-12-11T18:38:44.255Z,0.82
2017-12-11T18:41:12.566Z,0.60
2017-12-11T18:43:41.560Z,0.77
2017-12-11T18:46:09.678Z,1.10
2017-12-11T18:48:39.194Z,0.70
2017-12-11T18:51:09.167Z,0.70
2017-12-11T18:53:37.190Z,1.30
2017-12-11T18:56:05.863Z,0.95
2017-12-11T18:58:33.834Z,0.50
2017-12-11T19:01:02.788Z,0.50
2017-12-11T19:03:31.523Z,0.70
2017-12-11T19:05:59.711Z,1.00
2017-12-11T19:08:27.653Z,1.70
2017-12-11T19:10:55.868Z,0.82
2017-12-11T19:13:23.693Z,0.50
2017-12-11T19:15:51.661Z,0.80
2017-12-11T19:18:19.527Z,1.23
2017-12-11T19:20:47.396Z,0.80
2017-12-11T19:23:15.352Z,0.88
2017-12-11T19:25:43.014Z,1.20
2017-12-11T19:28:10.692Z,1.05
2017-12-11T19:30:38.774Z,0.75
2017-12-11T19:33:06.521Z,0.62
2017-12-11T19:35:34.186Z,0.90
2017-12-11T19:38:02.018Z,0.80
2017-12-11T19:40:30.122Z,0.57
